sensor_id;sensor_type;location;lat;lon;timestamp;P1;durP1;ratioP1;P2;durP2;ratioP2
50757;SDS011;36732;47.980;11.652;2024-03-25T00:00:27;0.75;;;0.75;;
50757;SDS011;36732;47.980;11.652;2024-03-25T00:02:54;3.15;;;0.88;;
50757;SDS011;36732;47.980;11.652;2024-03-25T00:05:20;1.30;;;0.73;;
50757;SDS011;36732;47.980;11.652;2024-03-25T00:07:50;1.65;;;0.50;;
50757;SDS011;36732;47.980;11.652;2024-03-25T00:10:17;1.00;;;0.70;;
50757;SDS011;36732;47.980;11.652;2024-03-25T00:12:45;3.05;;;0.90;;
50757;SDS011;36732;47.980;11.652;2024-03-25T00:15:12;0.45;;;0.45;;
50757;SDS011;36732;47.980;11.652;2024-03-25T00:17:38;1.13;;;0.60;;
50757;SDS011;36732;47.980;11.652;2024-03-25T00:20:04;2.47;;;0.77;;
50757;SDS011;36732;47.980;11.652;2024-03-25T00:22:34;0.75;;;0.60;;
50757;SDS011;36732;47.980;11.652;2024-03-25T00:24:59;1.42;;;0.93;;
50757;SDS011;36732;47.980;11.652;2024-03-25T00:27:25;0.98;;;0.70;;
50757;SDS011;36732;47.980;11.652;2024-03-25T00:29:51;1.65;;;0.70;;
50757;SDS011;36732;47.980;11.652;2024-03-25T00:32:17;0.82;;;0.70;;
50757;SDS011;36732;47.980;11.652;2024-03-25T00:34:42;2.90;;;1.02;;
50757;SDS011;36732;47.980;11.652;2024-03-25T00:37:08;1.80;;;1.02;;
50757;SDS011;36732;47.980;11.652;2024-03-25T00:39:34;1.92;;;0.55;;
50757;SDS011;36732;47.980;11.652;2024-03-25T00:42:00;0.40;;;0.40;;
50757;SDS011;36732;47.980;11.652;2024-03-25T00:44:26;0.93;;;0.60;;
50757;SDS011;36732;47.980;11.652;2024-03-25T00:46:52;1.38;;;0.70;;
50757;SDS011;36732;47.980;11.652;2024-03-25T00:49:18;1.98;;;0.60;;
50757;SDS011;36732;47.980;11.652;2024-03-25T00:51:43;1.38;;;0.93;;
50757;SDS011;36732;47.980;11.652;2024-03-25T00:54:09;0.98;;;0.65;;
50757;SDS011;36732;47.980;11.652;2024-03-25T00:56:35;2.15;;;0.95;;
50757;SDS011;36732;47.980;11.652;2024-03-25T00:59:01;2.05;;;0.60;;
50757;SDS011;36732;47.980;11.652;2024-03-25T01:01:31;0.75;;;0.60;;
50757;SDS011;36732;47.980;11.652;2024-03-25T01:04:01;3.05;;;1.08;;
50757;SDS011;36732;47.980;11.652;2024-03-25T01:06:27;2.60;;;1.23;;
50757;SDS011;36732;47.980;11.652;2024-03-25T01:08:53;0.93;;;0.60;;
50757;SDS011;36732;47.980;11.652;2024-03-25T01:11:18;1.38;;;0.75;;
50757;SDS011;36732;47.980;11.652;2024-03-25T01:13:44;1.85;;;0.88;;
50757;SDS011;36732;47.980;11.652;2024-03-25T01:16:11;0.95;;;0.50;;
50757;SDS011;36732;47.980;11.652;2024-03-25T01:18:37;1.42;;;0.60;;
50757;SDS011;36732;47.980;11.652;2024-03-25T01:21:03;1.05;;;0.82;;
50757;SDS011;36732;47.980;11.652;2024-03-25T01:23:29;1.33;;;0.75;;
50757;SDS011;36732;47.980;11.652;2024-03-25T01:25:55;1.38;;;0.73;;
50757;SDS011;36732;47.980;11.652;2024-03-25T01:28:21;1.42;;;0.60;;
50757;SDS011;36732;47.980;11.652;2024-03-25T01:30:47;0.70;;;0.60;;
50757;SDS011;36732;47.980;11.652;2024-03-25T01:33:13;0.80;;;0.60;;
50757;SDS011;36732;47.980;11.652;2024-03-25T01:35:40;1.48;;;0.60;;
50757;SDS011;36732;47.980;11.652;2024-03-25T01:38:05;1.58;;;0.60;;
50757;SDS011;36732;47.980;11.652;2024-03-25T01:40:31;0.77;;;0.68;;
50757;SDS011;36732;47.980;11.652;2024-03-25T01:42:57;1.02;;;0.60;;
50757;SDS011;36732;47.980;11.652;2024-03-25T01:45:31;1.38;;;0.60;;
50757;SDS011;36732;47.980;11.652;2024-03-25T01:48:01;1.17;;;0.70;;
50757;SDS011;36732;47.980;11.652;2024-03-25T01:50:31;0.55;;;0.47;;
50757;SDS011;36732;47.980;11.652;2024-03-25T01:53:02;1.42;;;0.55;;
50757;SDS011;36732;47.980;11.652;2024-03-25T01:55:28;1.45;;;0.60;;
50757;SDS011;36732;47.980;11.652;2024-03-25T01:57:55;0.88;;;0.50;;
50757;SDS011;36732;47.980;11.652;2024-03-25T02:00:22;0.75;;;0.40;;
50757;SDS011;36732;47.980;11.652;2024-03-25T02:02:50;0.50;;;0.50;;
50757;SDS011;36732;47.980;11.652;2024-03-25T02:05:17;0.90;;;0.40;;
50757;SDS011;36732;47.980;11.652;2024-03-25T02:07:46;1.60;;;0.40;;
50757;SDS011;36732;47.980;11.652;2024-03-25T02:10:12;2.05;;;0.38;;
50757;SDS011;36732;47.980;11.652;2024-03-25T02:12:40;0.80;;;0.52;;
50757;SDS011;36732;47.980;11.652;2024-03-25T02:15:11;0.55;;;0.47;;
50757;SDS011;36732;47.980;11.652;2024-03-25T02:17:38;0.93;;;0.50;;
50757;SDS011;36732;47.980;11.652;2024-03-25T02:20:04;1.13;;;0.60;;
50757;SDS011;36732;47.980;11.652;2024-03-25T02:22:32;0.52;;;0.30;;
50757;SDS011;36732;47.980;11.652;2024-03-25T02:24:59;0.50;;;0.45;;
50757;SDS011;36732;47.980;11.652;2024-03-25T02:27:26;0.55;;;0.50;;
50757;SDS011;36732;47.980;11.652;2024-03-25T02:30:06;0.40;;;0.40;;
50757;SDS011;36732;47.980;11.652;2024-03-25T02:32:38;0.75;;;0.40;;
50757;SDS011;36732;47.980;11.652;2024-03-25T02:35:05;0.43;;;0.40;;
50757;SDS011;36732;47.980;11.652;2024-03-25T02:37:33;0.88;;;0.60;;
50757;SDS011;36732;47.980;11.652;2024-03-25T02:40:00;0.65;;;0.45;;
50757;SDS011;36732;47.980;11.652;2024-03-25T02:42:30;0.60;;;0.50;;
50757;SDS011;36732;47.980;11.652;2024-03-25T02:44:56;0.75;;;0.40;;
50757;SDS011;36732;47.980;11.652;2024-03-25T02:47:22;0.70;;;0.70;;
50757;SDS011;36732;47.980;11.652;2024-03-25T02:49:48;0.50;;;0.50;;
50757;SDS011;36732;47.980;11.652;2024-03-25T02:52:14;0.85;;;0.60;;
50757;SDS011;36732;47.980;11.652;2024-03-25T02:54:39;0.77;;;0.50;;
50757;SDS011;36732;47.980;11.652;2024-03-25T02:57:05;1.25;;;0.60;;
50757;SDS011;36732;47.980;11.652;2024-03-25T02:59:31;1.88;;;0.60;;
50757;SDS011;36732;47.980;11.652;2024-03-25T03:01:57;0.60;;;0.60;;
50757;SDS011;36732;47.980;11.652;2024-03-25T03:04:22;0.90;;;0.50;;
50757;SDS011;36732;47.980;11.652;2024-03-25T03:06:48;0.93;;;0.40;;
50757;SDS011;36732;47.980;11.652;2024-03-25T03:09:14;0.85;;;0.68;;
50757;SDS011;36732;47.980;11.652;2024-03-25T03:11:40;2.63;;;0.85;;
50757;SDS011;36732;47.980;11.652;2024-03-25T03:14:06;1.60;;;0.80;;
50757;SDS011;36732;47.980;11.652;2024-03-25T03:16:32;0.50;;;0.50;;
50757;SDS011;36732;47.980;11.652;2024-03-25T03:18:57;0.85;;;0.60;;
50757;SDS011;36732;47.980;11.652;2024-03-25T03:21:23;0.60;;;0.57;;
50757;SDS011;36732;47.980;11.652;2024-03-25T03:23:49;1.27;;;0.75;;
50757;SDS011;36732;47.980;11.652;2024-03-25T03:26:14;1.13;;;0.60;;
50757;SDS011;36732;47.980;11.652;2024-03-25T03:28:40;1.80;;;0.70;;
50757;SDS011;36732;47.980;11.652;2024-03-25T03:31:06;1.05;;;0.80;;
50757;SDS011;36732;47.980;11.652;2024-03-25T03:33:32;1.33;;;1.17;;
50757;SDS011;36732;47.980;11.652;2024-03-25T03:35:57;1.70;;;0.85;;
50757;SDS011;36732;47.980;11.652;2024-03-25T03:38:23;1.75;;;0.73;;
50757;SDS011;36732;47.980;11.652;2024-03-25T03:40:58;0.98;;;0.70;;
50757;SDS011;36732;47.980;11.652;2024-03-25T03:43:26;5.57;;;0.90;;
50757;SDS011;36732;47.980;11.652;2024-03-25T03:45:52;0.80;;;0.80;;
50757;SDS011;36732;47.980;11.652;2024-03-25T03:48:17;0.65;;;0.60;;
50757;SDS011;36732;47.980;11.652;2024-03-25T03:50:43;1.10;;;0.93;;
50757;SDS011;36732;47.980;11.652;2024-03-25T03:53:09;1.02;;;0.80;;
50757;SDS011;36732;47.980;11.652;2024-03-25T03:55:35;2.03;;;0.77;;
50757;SDS011;36732;47.980;11.652;2024-03-25T03:58:01;0.80;;;0.80;;
50757;SDS011;36732;47.980;11.652;2024-03-25T04:00:27;0.88;;;0.80;;
50757;SDS011;36732;47.980;11.652;2024-03-25T04:02:53;1.67;;;0.90;;
50757;SDS011;36732;47.980;11.652;2024-03-25T04:05:19;1.50;;;0.65;;
50757;SDS011;36732;47.980;11.652;2024-03-25T04:07:45;2.28;;;0.82;;
50757;SDS011;36732;47.980;11.652;2024-03-25T04:10:10;1.70;;;0.80;;
50757;SDS011;36732;47.980;11.652;2024-03-25T04:12:36;0.60;;;0.60;;
50757;SDS011;36732;47.980;11.652;2024-03-25T04:15:02;2.05;;;0.85;;
50757;SDS011;36732;47.980;11.652;2024-03-25T04:17:28;2.28;;;0.98;;
50757;SDS011;36732;47.980;11.652;2024-03-25T04:19:54;2.00;;;0.75;;
50757;SDS011;36732;47.980;11.652;2024-03-25T04:22:20;1.33;;;0.70;;
50757;SDS011;36732;47.980;11.652;2024-03-25T04:24:46;1.13;;;0.73;;
50757;SDS011;36732;47.980;11.652;2024-03-25T04:27:12;0.85;;;0.70;;
50757;SDS011;36732;47.980;11.652;2024-03-25T04:29:37;1.20;;;0.70;;
50757;SDS011;36732;47.980;11.652;2024-03-25T04:32:03;2.60;;;1.15;;
50757;SDS011;36732;47.980;11.652;2024-03-25T04:34:29;0.77;;;0.75;;
50757;SDS011;36732;47.980;11.652;2024-03-25T04:36:57;1.55;;;0.80;;
50757;SDS011;36732;47.980;11.652;2024-03-25T04:39:23;1.20;;;0.90;;
50757;SDS011;36732;47.980;11.652;2024-03-25T04:41:49;1.50;;;0.80;;
50757;SDS011;36732;47.980;11.652;2024-03-25T04:44:14;1.48;;;1.00;;
50757;SDS011;36732;47.980;11.652;2024-03-25T04:46:43;2.65;;;0.80;;
50757;SDS011;36732;47.980;11.652;2024-03-25T04:49:09;1.67;;;1.10;;
50757;SDS011;36732;47.980;11.652;2024-03-25T04:51:35;2.42;;;1.27;;
50757;SDS011;36732;47.980;11.652;2024-03-25T04:54:01;1.25;;;0.93;;
50757;SDS011;36732;47.980;11.652;2024-03-25T04:56:27;1.17;;;0.80;;
50757;SDS011;36732;47.980;11.652;2024-03-25T04:58:52;1.92;;;0.93;;
50757;SDS011;36732;47.980;11.652;2024-03-25T05:01:18;2.83;;;1.08;;
50757;SDS011;36732;47.980;11.652;2024-03-25T05:03:44;2.15;;;1.08;;
50757;SDS011;36732;47.980;11.652;2024-03-25T05:06:10;1.33;;;0.60;;
50757;SDS011;36732;47.980;11.652;2024-03-25T05:08:36;1.08;;;0.80;;
50757;SDS011;36732;47.980;11.652;2024-03-25T05:11:02;0.75;;;0.60;;
50757;SDS011;36732;47.980;11.652;2024-03-25T05:13:27;1.00;;;0.60;;
50757;SDS011;36732;47.980;11.652;2024-03-25T05:15:53;1.20;;;0.70;;
50757;SDS011;36732;47.980;11.652;2024-03-25T05:18:19;1.25;;;0.70;;
50757;SDS011;36732;47.980;11.652;2024-03-25T05:20:44;3.63;;;1.05;;
50757;SDS011;36732;47.980;11.652;2024-03-25T05:23:10;1.95;;;0.88;;
50757;SDS011;36732;47.980;11.652;2024-03-25T05:25:36;2.28;;;1.40;;
50757;SDS011;36732;47.980;11.652;2024-03-25T05:28:03;2.17;;;1.00;;
50757;SDS011;36732;47.980;11.652;2024-03-25T05:30:29;1.60;;;1.00;;
50757;SDS011;36732;47.980;11.652;2024-03-25T05:32:55;2.45;;;1.50;;
50757;SDS011;36732;47.980;11.652;2024-03-25T05:35:21;3.25;;;0.90;;
50757;SDS011;36732;47.980;11.652;2024-03-25T05:37:46;1.45;;;0.75;;
50757;SDS011;36732;47.980;11.652;2024-03-25T05:40:12;1.77;;;1.02;;
50757;SDS011;36732;47.980;11.652;2024-03-25T05:42:39;4.00;;;1.00;;
50757;SDS011;36732;47.980;11.652;2024-03-25T05:45:05;1.67;;;1.02;;
50757;SDS011;36732;47.980;11.652;2024-03-25T05:47:32;1.40;;;0.80;;
50757;SDS011;36732;47.980;11.652;2024-03-25T05:49:57;2.00;;;0.98;;
50757;SDS011;36732;47.980;11.652;2024-03-25T05:52:28;3.20;;;1.00;;
50757;SDS011;36732;47.980;11.652;2024-03-25T05:54:53;1.42;;;0.90;;
50757;SDS011;36732;47.980;11.652;2024-03-25T05:57:19;2.15;;;0.80;;
50757;SDS011;36732;47.980;11.652;2024-03-25T05:59:45;1.92;;;0.70;;
50757;SDS011;36732;47.980;11.652;2024-03-25T06:02:11;1.40;;;1.02;;
50757;SDS011;36732;47.980;11.652;2024-03-25T06:04:37;0.77;;;0.60;;
50757;SDS011;36732;47.980;11.652;2024-03-25T06:07:02;1.83;;;0.90;;
50757;SDS011;36732;47.980;11.652;2024-03-25T06:09:28;1.02;;;0.60;;
50757;SDS011;36732;47.980;11.652;2024-03-25T06:11:54;0.85;;;0.85;;
50757;SDS011;36732;47.980;11.652;2024-03-25T06:14:20;1.23;;;0.80;;
50757;SDS011;36732;47.980;11.652;2024-03-25T06:16:45;2.10;;;1.10;;
50757;SDS011;36732;47.980;11.652;2024-03-25T06:19:11;0.90;;;0.80;;
50757;SDS011;36732;47.980;11.652;2024-03-25T06:21:37;1.08;;;0.80;;
50757;SDS011;36732;47.980;11.652;2024-03-25T06:24:03;1.08;;;0.93;;
50757;SDS011;36732;47.980;11.652;2024-03-25T06:26:29;2.13;;;1.08;;
50757;SDS011;36732;47.980;11.652;2024-03-25T06:28:55;2.67;;;1.48;;
50757;SDS011;36732;47.980;11.652;2024-03-25T06:31:20;2.63;;;1.00;;
50757;SDS011;36732;47.980;11.652;2024-03-25T06:34:04;2.60;;;0.95;;
50757;SDS011;36732;47.980;11.652;2024-03-25T06:36:39;2.47;;;0.82;;
50757;SDS011;36732;47.980;11.652;2024-03-25T06:39:05;3.13;;;1.10;;
50757;SDS011;36732;47.980;11.652;2024-03-25T06:41:31;2.88;;;1.00;;
50757;SDS011;36732;47.980;11.652;2024-03-25T06:43:57;3.30;;;1.25;;
50757;SDS011;36732;47.980;11.652;2024-03-25T06:46:23;2.20;;;1.00;;
50757;SDS011;36732;47.980;11.652;2024-03-25T06:48:49;1.75;;;0.82;;
50757;SDS011;36732;47.980;11.652;2024-03-25T06:51:15;1.85;;;1.15;;
50757;SDS011;36732;47.980;11.652;2024-03-25T06:53:40;3.05;;;1.27;;
50757;SDS011;36732;47.980;11.652;2024-03-25T06:56:06;1.60;;;0.98;;
50757;SDS011;36732;47.980;11.652;2024-03-25T06:58:32;1.55;;;0.82;;
50757;SDS011;36732;47.980;11.652;2024-03-25T07:01:03;2.67;;;0.80;;
50757;SDS011;36732;47.980;11.652;2024-03-25T07:03:31;1.48;;;0.90;;
50757;SDS011;36732;47.980;11.652;2024-03-25T07:05:58;1.08;;;0.85;;
50757;SDS011;36732;47.980;11.652;2024-03-25T07:08:25;5.13;;;1.10;;
50757;SDS011;36732;47.980;11.652;2024-03-25T07:10:55;1.85;;;0.77;;
50757;SDS011;36732;47.980;11.652;2024-03-25T07:13:21;1.35;;;0.90;;
50757;SDS011;36732;47.980;11.652;2024-03-25T07:15:47;1.92;;;0.90;;
50757;SDS011;36732;47.980;11.652;2024-03-25T07:18:12;3.30;;;1.63;;
50757;SDS011;36732;47.980;11.652;2024-03-25T07:20:41;3.00;;;0.80;;
50757;SDS011;36732;47.980;11.652;2024-03-25T07:23:08;1.60;;;0.82;;
50757;SDS011;36732;47.980;11.652;2024-03-25T07:25:35;1.27;;;0.95;;
50757;SDS011;36732;47.980;11.652;2024-03-25T07:28:01;1.30;;;0.95;;
50757;SDS011;36732;47.980;11.652;2024-03-25T07:30:27;1.67;;;0.77;;
50757;SDS011;36732;47.980;11.652;2024-03-25T07:32:57;1.17;;;1.02;;
50757;SDS011;36732;47.980;11.652;2024-03-25T07:35:23;4.10;;;1.60;;
50757;SDS011;36732;47.980;11.652;2024-03-25T07:37:50;2.17;;;0.80;;
50757;SDS011;36732;47.980;11.652;2024-03-25T07:40:16;1.58;;;0.93;;
50757;SDS011;36732;47.980;11.652;2024-03-25T07:42:46;2.08;;;1.08;;
50757;SDS011;36732;47.980;11.652;2024-03-25T07:45:14;1.60;;;1.30;;
50757;SDS011;36732;47.980;11.652;2024-03-25T07:47:40;0.90;;;0.70;;
50757;SDS011;36732;47.980;11.652;2024-03-25T07:50:06;1.25;;;1.00;;
50757;SDS011;36732;47.980;11.652;2024-03-25T07:52:33;1.75;;;0.80;;
50757;SDS011;36732;47.980;11.652;2024-03-25T07:55:01;3.15;;;1.17;;
50757;SDS011;36732;47.980;11.652;2024-03-25T07:57:27;1.50;;;0.98;;
50757;SDS011;36732;47.980;11.652;2024-03-25T07:59:52;1.95;;;0.63;;
50757;SDS011;36732;47.980;11.652;2024-03-25T08:02:18;1.85;;;0.93;;
50757;SDS011;36732;47.980;11.652;2024-03-25T08:04:44;8.52;;;1.00;;
50757;SDS011;36732;47.980;11.652;2024-03-25T08:07:10;2.70;;;1.17;;
50757;SDS011;36732;47.980;11.652;2024-03-25T08:09:35;3.72;;;1.20;;
50757;SDS011;36732;47.980;11.652;2024-03-25T08:12:01;2.28;;;1.42;;
50757;SDS011;36732;47.980;11.652;2024-03-25T08:14:27;2.17;;;1.45;;
50757;SDS011;36732;47.980;11.652;2024-03-25T08:16:52;1.35;;;0.80;;
50757;SDS011;36732;47.980;11.652;2024-03-25T08:19:18;1.17;;;0.75;;
50757;SDS011;36732;47.980;11.652;2024-03-25T08:21:44;1.35;;;0.80;;
50757;SDS011;36732;47.980;11.652;2024-03-25T08:24:09;1.88;;;1.10;;
50757;SDS011;36732;47.980;11.652;2024-03-25T08:26:35;1.98;;;1.02;;
50757;SDS011;36732;47.980;11.652;2024-03-25T08:29:01;3.17;;;1.23;;
50757;SDS011;36732;47.980;11.652;2024-03-25T08:31:27;1.10;;;0.82;;
50757;SDS011;36732;47.980;11.652;2024-03-25T08:33:53;1.55;;;1.00;;
50757;SDS011;36732;47.980;11.652;2024-03-25T08:36:19;4.53;;;1.20;;
50757;SDS011;36732;47.980;11.652;2024-03-25T08:38:44;1.95;;;1.00;;
50757;SDS011;36732;47.980;11.652;2024-03-25T08:41:10;1.30;;;0.90;;
50757;SDS011;36732;47.980;11.652;2024-03-25T08:43:36;2.05;;;1.00;;
50757;SDS011;36732;47.980;11.652;2024-03-25T08:46:01;1.35;;;0.80;;
50757;SDS011;36732;47.980;11.652;2024-03-25T08:48:28;1.25;;;0.98;;
50757;SDS011;36732;47.980;11.652;2024-03-25T08:50:54;5.22;;;1.10;;
50757;SDS011;36732;47.980;11.652;2024-03-25T08:53:20;2.40;;;1.00;;
50757;SDS011;36732;47.980;11.652;2024-03-25T08:55:46;2.35;;;0.90;;
50757;SDS011;36732;47.980;11.652;2024-03-25T08:58:13;3.28;;;1.15;;
50757;SDS011;36732;47.980;11.652;2024-03-25T09:00:40;1.85;;;0.95;;
50757;SDS011;36732;47.980;11.652;2024-03-25T09:03:07;1.73;;;0.88;;
50757;SDS011;36732;47.980;11.652;2024-03-25T09:05:34;2.72;;;1.20;;
50757;SDS011;36732;47.980;11.652;2024-03-25T09:08:00;4.03;;;1.13;;
50757;SDS011;36732;47.980;11.652;2024-03-25T09:10:26;1.58;;;1.23;;
50757;SDS011;36732;47.980;11.652;2024-03-25T09:13:11;3.55;;;1.15;;
50757;SDS011;36732;47.980;11.652;2024-03-25T09:15:36;1.38;;;0.90;;
50757;SDS011;36732;47.980;11.652;2024-03-25T09:18:02;2.45;;;1.13;;
50757;SDS011;36732;47.980;11.652;2024-03-25T09:20:28;1.80;;;0.80;;
50757;SDS011;36732;47.980;11.652;2024-03-25T09:22:54;4.63;;;1.08;;
50757;SDS011;36732;47.980;11.652;2024-03-25T09:25:19;1.08;;;0.68;;
50757;SDS011;36732;47.980;11.652;2024-03-25T09:27:48;1.30;;;0.77;;
50757;SDS011;36732;47.980;11.652;2024-03-25T09:30:15;2.30;;;0.98;;
50757;SDS011;36732;47.980;11.652;2024-03-25T09:32:41;1.65;;;0.80;;
50757;SDS011;36732;47.980;11.652;2024-03-25T09:35:07;1.05;;;0.70;;
50757;SDS011;36732;47.980;11.652;2024-03-25T09:37:34;1.92;;;1.05;;
50757;SDS011;36732;47.980;11.652;2024-03-25T09:40:00;2.97;;;0.70;;
50757;SDS011;36732;47.980;11.652;2024-03-25T09:42:31;1.65;;;0.77;;
50757;SDS011;36732;47.980;11.652;2024-03-25T09:45:02;0.93;;;0.50;;
50757;SDS011;36732;47.980;11.652;2024-03-25T09:47:32;0.75;;;0.70;;
50757;SDS011;36732;47.980;11.652;2024-03-25T09:49:58;2.13;;;0.80;;
50757;SDS011;36732;47.980;11.652;2024-03-25T09:52:28;1.27;;;0.77;;
50757;SDS011;36732;47.980;11.652;2024-03-25T09:54:53;2.42;;;0.80;;
50757;SDS011;36732;47.980;11.652;2024-03-25T09:57:22;1.13;;;0.88;;
50757;SDS011;36732;47.980;11.652;2024-03-25T09:59:48;0.85;;;0.55;;
50757;SDS011;36732;47.980;11.652;2024-03-25T10:02:14;1.60;;;0.70;;
50757;SDS011;36732;47.980;11.652;2024-03-25T10:04:45;1.67;;;0.80;;
50757;SDS011;36732;47.980;11.652;2024-03-25T10:07:22;2.20;;;0.88;;
50757;SDS011;36732;47.980;11.652;2024-03-25T10:09:49;1.20;;;0.60;;
50757;SDS011;36732;47.980;11.652;2024-03-25T10:12:15;3.03;;;0.73;;
50757;SDS011;36732;47.980;11.652;2024-03-25T10:14:42;0.93;;;0.55;;
50757;SDS011;36732;47.980;11.652;2024-03-25T10:17:08;0.60;;;0.55;;
50757;SDS011;36732;47.980;11.652;2024-03-25T10:19:34;1.63;;;0.60;;
50757;SDS011;36732;47.980;11.652;2024-03-25T10:24:50;2.08;;;0.70;;
50757;SDS011;36732;47.980;11.652;2024-03-25T10:27:22;1.08;;;0.73;;
50757;SDS011;36732;47.980;11.652;2024-03-25T10:29:52;0.82;;;0.57;;
50757;SDS011;36732;47.980;11.652;2024-03-25T10:32:20;1.17;;;0.57;;
50757;SDS011;36732;47.980;11.652;2024-03-25T10:34:49;1.48;;;0.70;;
50757;SDS011;36732;47.980;11.652;2024-03-25T10:37:15;1.20;;;0.77;;
50757;SDS011;36732;47.980;11.652;2024-03-25T10:39:49;0.73;;;0.70;;
50757;SDS011;36732;47.980;11.652;2024-03-25T10:42:20;0.95;;;0.45;;
50757;SDS011;36732;47.980;11.652;2024-03-25T10:44:48;1.17;;;0.82;;
50757;SDS011;36732;47.980;11.652;2024-03-25T10:47:16;1.38;;;0.60;;
50757;SDS011;36732;47.980;11.652;2024-03-25T10:49:51;1.20;;;0.70;;
50757;SDS011;36732;47.980;11.652;2024-03-25T10:52:23;1.50;;;0.60;;
50757;SDS011;36732;47.980;11.652;2024-03-25T10:54:51;0.65;;;0.65;;
50757;SDS011;36732;47.980;11.652;2024-03-25T10:57:19;1.98;;;0.70;;
50757;SDS011;36732;47.980;11.652;2024-03-25T10:59:45;0.93;;;0.57;;
50757;SDS011;36732;47.980;11.652;2024-03-25T11:02:11;0.80;;;0.57;;
50757;SDS011;36732;47.980;11.652;2024-03-25T11:04:38;1.67;;;0.77;;
50757;SDS011;36732;47.980;11.652;2024-03-25T11:07:12;1.13;;;0.80;;
50757;SDS011;36732;47.980;11.652;2024-03-25T11:09:40;1.27;;;0.60;;
50757;SDS011;36732;47.980;11.652;2024-03-25T11:12:07;0.98;;;0.68;;
50757;SDS011;36732;47.980;11.652;2024-03-25T11:14:35;1.38;;;0.60;;
50757;SDS011;36732;47.980;11.652;2024-03-25T11:17:01;2.67;;;0.68;;
50757;SDS011;36732;47.980;11.652;2024-03-25T11:19:30;1.75;;;0.60;;
50757;SDS011;36732;47.980;11.652;2024-03-25T11:22:10;0.73;;;0.47;;
50757;SDS011;36732;47.980;11.652;2024-03-25T11:24:36;0.65;;;0.60;;
50757;SDS011;36732;47.980;11.652;2024-03-25T11:27:03;0.70;;;0.50;;
50757;SDS011;36732;47.980;11.652;2024-03-25T11:29:32;0.43;;;0.43;;
50757;SDS011;36732;47.980;11.652;2024-03-25T11:31:59;0.45;;;0.40;;
50757;SDS011;36732;47.980;11.652;2024-03-25T11:34:29;0.77;;;0.57;;
50757;SDS011;36732;47.980;11.652;2024-03-25T11:36:55;1.38;;;0.70;;
50757;SDS011;36732;47.980;11.652;2024-03-25T11:39:22;1.02;;;0.47;;
50757;SDS011;36732;47.980;11.652;2024-03-25T11:41:51;0.90;;;0.68;;
50757;SDS011;36732;47.980;11.652;2024-03-25T11:44:17;0.90;;;0.50;;
50757;SDS011;36732;47.980;11.652;2024-03-25T11:46:43;0.47;;;0.30;;
50757;SDS011;36732;47.980;11.652;2024-03-25T11:49:13;0.68;;;0.47;;
50757;SDS011;36732;47.980;11.652;2024-03-25T11:51:42;1.55;;;0.52;;
50757;SDS011;36732;47.980;11.652;2024-03-25T11:54:11;1.35;;;0.70;;
50757;SDS011;36732;47.980;11.652;2024-03-25T11:56:37;1.05;;;0.60;;
50757;SDS011;36732;47.980;11.652;2024-03-25T11:59:03;0.68;;;0.50;;
50757;SDS011;36732;47.980;11.652;2024-03-25T12:01:32;0.93;;;0.60;;
50757;SDS011;36732;47.980;11.652;2024-03-25T12:03:57;1.40;;;0.70;;
50757;SDS011;36732;47.980;11.652;2024-03-25T12:06:35;2.28;;;0.80;;
50757;SDS011;36732;47.980;11.652;2024-03-25T12:09:01;0.90;;;0.45;;
50757;SDS011;36732;47.980;11.652;2024-03-25T12:11:45;0.98;;;0.40;;
50757;SDS011;36732;47.980;11.652;2024-03-25T12:14:11;0.60;;;0.50;;
50757;SDS011;36732;47.980;11.652;2024-03-25T12:16:37;0.93;;;0.55;;
50757;SDS011;36732;47.980;11.652;2024-03-25T12:19:03;0.70;;;0.40;;
50757;SDS011;36732;47.980;11.652;2024-03-25T12:21:30;1.27;;;0.52;;
50757;SDS011;36732;47.980;11.652;2024-03-25T12:23:56;1.40;;;0.45;;
50757;SDS011;36732;47.980;11.652;2024-03-25T12:26:23;0.95;;;0.47;;
50757;SDS011;36732;47.980;11.652;2024-03-25T12:28:49;0.73;;;0.50;;
50757;SDS011;36732;47.980;11.652;2024-03-25T12:31:15;0.63;;;0.40;;
50757;SDS011;36732;47.980;11.652;2024-03-25T12:33:41;1.75;;;0.40;;
50757;SDS011;36732;47.980;11.652;2024-03-25T12:36:13;2.17;;;0.52;;
50757;SDS011;36732;47.980;11.652;2024-03-25T12:38:39;0.68;;;0.50;;
50757;SDS011;36732;47.980;11.652;2024-03-25T12:41:08;1.73;;;0.50;;
50757;SDS011;36732;47.980;11.652;2024-03-25T12:43:36;1.02;;;0.55;;
50757;SDS011;36732;47.980;11.652;2024-03-25T12:46:11;0.93;;;0.47;;
50757;SDS011;36732;47.980;11.652;2024-03-25T12:48:37;0.60;;;0.45;;
50757;SDS011;36732;47.980;11.652;2024-03-25T12:51:04;0.63;;;0.63;;
50757;SDS011;36732;47.980;11.652;2024-03-25T12:53:30;0.40;;;0.40;;
50757;SDS011;36732;47.980;11.652;2024-03-25T12:55:56;1.00;;;0.50;;
50757;SDS011;36732;47.980;11.652;2024-03-25T12:58:22;2.35;;;0.73;;
50757;SDS011;36732;47.980;11.652;2024-03-25T13:00:47;0.43;;;0.40;;
50757;SDS011;36732;47.980;11.652;2024-03-25T13:03:13;1.27;;;0.60;;
50757;SDS011;36732;47.980;11.652;2024-03-25T13:05:40;0.80;;;0.40;;
50757;SDS011;36732;47.980;11.652;2024-03-25T13:08:08;1.48;;;0.60;;
50757;SDS011;36732;47.980;11.652;2024-03-25T13:10:33;1.58;;;0.60;;
50757;SDS011;36732;47.980;11.652;2024-03-25T13:13:00;1.13;;;0.57;;
50757;SDS011;36732;47.980;11.652;2024-03-25T13:15:27;0.57;;;0.52;;
50757;SDS011;36732;47.980;11.652;2024-03-25T13:17:53;0.80;;;0.30;;
50757;SDS011;36732;47.980;11.652;2024-03-25T13:20:19;0.52;;;0.40;;
50757;SDS011;36732;47.980;11.652;2024-03-25T13:22:45;0.80;;;0.40;;
50757;SDS011;36732;47.980;11.652;2024-03-25T13:25:12;0.93;;;0.45;;
50757;SDS011;36732;47.980;11.652;2024-03-25T13:27:37;1.27;;;0.50;;
50757;SDS011;36732;47.980;11.652;2024-03-25T13:30:05;0.40;;;0.38;;
50757;SDS011;36732;47.980;11.652;2024-03-25T13:32:31;0.32;;;0.32;;
50757;SDS011;36732;47.980;11.652;2024-03-25T13:34:57;0.50;;;0.50;;
50757;SDS011;36732;47.980;11.652;2024-03-25T13:37:23;1.23;;;0.60;;
50757;SDS011;36732;47.980;11.652;2024-03-25T13:39:49;1.38;;;0.60;;
50757;SDS011;36732;47.980;11.652;2024-03-25T13:42:16;0.95;;;0.50;;
50757;SDS011;36732;47.980;11.652;2024-03-25T13:44:42;0.57;;;0.43;;
50757;SDS011;36732;47.980;11.652;2024-03-25T13:47:08;0.55;;;0.45;;
50757;SDS011;36732;47.980;11.652;2024-03-25T13:49:34;1.33;;;0.70;;
50757;SDS011;36732;47.980;11.652;2024-03-25T13:52:00;1.00;;;0.50;;
50757;SDS011;36732;47.980;11.652;2024-03-25T13:54:27;1.05;;;0.52;;
50757;SDS011;36732;47.980;11.652;2024-03-25T13:56:53;0.35;;;0.30;;
50757;SDS011;36732;47.980;11.652;2024-03-25T13:59:19;0.73;;;0.40;;
50757;SDS011;36732;47.980;11.652;2024-03-25T14:01:44;0.30;;;0.30;;
50757;SDS011;36732;47.980;11.652;2024-03-25T14:04:10;0.57;;;0.30;;
50757;SDS011;36732;47.980;11.652;2024-03-25T14:06:36;0.40;;;0.38;;
50757;SDS011;36732;47.980;11.652;2024-03-25T14:09:03;0.47;;;0.40;;
50757;SDS011;36732;47.980;11.652;2024-03-25T14:11:35;1.48;;;0.47;;
50757;SDS011;36732;47.980;11.652;2024-03-25T14:14:01;0.73;;;0.40;;
50757;SDS011;36732;47.980;11.652;2024-03-25T14:16:30;0.98;;;0.47;;
50757;SDS011;36732;47.980;11.652;2024-03-25T14:18:56;1.67;;;0.40;;
50757;SDS011;36732;47.980;11.652;2024-03-25T14:21:21;1.30;;;0.40;;
50757;SDS011;36732;47.980;11.652;2024-03-25T14:23:47;0.68;;;0.30;;
50757;SDS011;36732;47.980;11.652;2024-03-25T14:26:13;0.75;;;0.50;;
50757;SDS011;36732;47.980;11.652;2024-03-25T14:28:42;0.60;;;0.60;;
50757;SDS011;36732;47.980;11.652;2024-03-25T14:31:07;0.68;;;0.40;;
50757;SDS011;36732;47.980;11.652;2024-03-25T14:33:33;0.68;;;0.52;;